Terminal Aerodrome Forecast
Issued by NWS

Home | Current Version | Previous Version | Text Only | Print | Product List | Glossary On
Versions: 1 2 3 4 5 6 7 8 9 10 11 12 13 14 15 16 17 18 19 20 21 22 23 24 25 26 27 28 29
000
FTUS45 KSLC 202344
TAFPVU
TAF
KPVU 202344Z 2100/2124 VRB03KT P6SM VCSH BKN045 OVC080
     FM210600 VRB05KT P6SM -SHRA SCT020 OVC040
     FM211200 16010KT P6SM -RA SCT020 BKN040
     FM212100 22010KT 5SM -RA SCT015 BKN030
      AMD LTD TO CLD VIS AND WIND=

USA.gov is the U.S. government's official web portal to all federal, state and local government web resources and services.